Time;durP1;ratioP1;P1;durP2;ratioP2;P2;SDS_P1;SDS_P2;PMS_P1;PMS_P2;Temp;Humidity;BMP_temperature;BMP_pressure;BME280_temperature;BME280_humidity;BME280_pressure;Samples;Min_cycle;Max_cycle;Signal;HPM_P1;HPM_P2
2022/01/31 00:00:22;;;;;;;8.73;3.45;;;;;;;;;;4973640;28;20078;-77
2022/01/31 00:02:49;;;;;;;10.82;4.50;;;;;;;;;;4972378;28;20055;-77
2022/01/31 00:05:16;;;;;;;12.07;4.70;;;;;;;;;;4974470;28;20055;-77
2022/01/31 00:07:44;;;;;;;12.02;4.80;;;;;;;;;;4975582;28;20046;-77
2022/01/31 00:10:13;;;;;;;10.82;4.97;;;;;;;;;;4975844;28;20109;-77
2022/01/31 00:12:49;;;;;;;10.85;4.85;;;;;;;;;;4977789;28;20055;-77
2022/01/31 00:15:16;;;;;;;10.57;4.50;;;;;;;;;;4979253;28;20043;-77
2022/01/31 00:17:43;;;;;;;13.52;4.35;;;;;;;;;;4978087;28;20054;-78
2022/01/31 00:20:11;;;;;;;11.00;3.90;;;;;;;;;;4978185;28;20572;-78
2022/01/31 00:22:39;;;;;;;9.00;3.75;;;;;;;;;;4978395;28;20122;-79
2022/01/31 00:25:08;;;;;;;11.35;4.85;;;;;;;;;;4974180;28;20457;-77
2022/01/31 00:27:34;;;;;;;10.77;4.38;;;;;;;;;;4977145;28;20046;-78
2022/01/31 00:30:01;;;;;;;13.23;4.00;;;;;;;;;;4969610;28;20043;-77
2022/01/31 00:32:29;;;;;;;9.85;4.38;;;;;;;;;;4960635;28;20126;-77
2022/01/31 00:34:56;;;;;;;12.43;4.70;;;;;;;;;;4967989;28;20047;-76
2022/01/31 00:37:23;;;;;;;10.98;4.00;;;;;;;;;;4968377;28;20499;-78
2022/01/31 00:39:50;;;;;;;10.85;4.47;;;;;;;;;;4967336;28;20091;-77
2022/01/31 00:42:19;;;;;;;11.55;3.92;;;;;;;;;;4958280;28;20054;-77
2022/01/31 00:44:50;;;;;;;9.32;4.05;;;;;;;;;;4958980;28;20110;-79
2022/01/31 00:47:20;;;;;;;11.00;4.57;;;;;;;;;;4959574;28;20473;-78
2022/01/31 00:49:52;;;;;;;10.80;4.93;;;;;;;;;;4959633;28;20050;-78
2022/01/31 00:52:20;;;;;;;11.35;5.18;;;;;;;;;;4959008;28;20062;-77
2022/01/31 00:54:48;;;;;;;13.18;5.22;;;;;;;;;;4959925;28;20051;-78
2022/01/31 00:57:15;;;;;;;9.70;4.38;;;;;;;;;;4959905;28;20094;-77
2022/01/31 00:59:43;;;;;;;11.38;4.45;;;;;;;;;;4960770;28;20047;-77
2022/01/31 01:02:10;;;;;;;10.80;4.80;;;;;;;;;;4922800;28;1144329;-79
2022/01/31 01:05:27;;;;;;;12.82;4.47;;;;;;;;;;4960228;28;20050;-78
2022/01/31 01:08:06;;;;;;;11.75;4.43;;;;;;;;;;4958951;28;20110;-77
2022/01/31 01:10:33;;;;;;;7.20;3.60;;;;;;;;;;4960256;28;20126;-77
2022/01/31 01:19:58;;;;;;;8.98;3.95;;;;;;;;;;4985396;28;20134;-77
2022/01/31 01:25:52;;;;;;;8.07;3.50;;;;;;;;;;4977468;28;20174;-78
2022/01/31 01:28:20;;;;;;;9.55;4.03;;;;;;;;;;4976893;28;20073;-78
2022/01/31 01:47:52;;;;;;;11.90;5.38;;;;;;;;;;4920211;29;20463;-78
2022/01/31 01:50:18;;;;;;;7.85;4.03;;;;;;;;;;4898832;29;20052;-78
2022/01/31 01:52:46;;;;;;;10.32;4.22;;;;;;;;;;4927443;28;20051;-77
2022/01/31 01:55:13;;;;;;;9.40;4.72;;;;;;;;;;4958816;28;20121;-76
2022/01/31 01:57:40;;;;;;;9.30;4.15;;;;;;;;;;4957407;28;20105;-78
2022/01/31 02:00:09;;;;;;;10.82;4.07;;;;;;;;;;4955107;28;20047;-78
2022/01/31 02:02:36;;;;;;;11.98;4.30;;;;;;;;;;4954849;28;20419;-79
2022/01/31 02:05:05;;;;;;;13.38;3.97;;;;;;;;;;4955241;28;20126;-78
2022/01/31 02:07:32;;;;;;;10.70;3.90;;;;;;;;;;4955242;28;20075;-76
2022/01/31 02:10:01;;;;;;;11.43;4.70;;;;;;;;;;4955252;28;20043;-79
2022/01/31 02:12:38;;;;;;;10.32;4.47;;;;;;;;;;4955791;28;20525;-77
2022/01/31 02:15:06;;;;;;;10.85;4.45;;;;;;;;;;4954929;28;20106;-78
2022/01/31 02:17:32;;;;;;;9.68;4.20;;;;;;;;;;4954523;28;20059;-78
2022/01/31 02:19:59;;;;;;;12.10;4.25;;;;;;;;;;4957317;28;20428;-78
2022/01/31 02:22:27;;;;;;;10.93;4.05;;;;;;;;;;4957152;28;20051;-78
2022/01/31 02:24:57;;;;;;;12.65;5.15;;;;;;;;;;4955918;28;20200;-78
2022/01/31 02:27:25;;;;;;;8.65;4.18;;;;;;;;;;4954501;28;20051;-78
2022/01/31 02:29:52;;;;;;;10.30;4.35;;;;;;;;;;4954854;28;20055;-78
2022/01/31 02:32:20;;;;;;;12.57;4.80;;;;;;;;;;4954555;28;20047;-79
2022/01/31 02:34:47;;;;;;;13.10;4.05;;;;;;;;;;4955531;28;20050;-79
2022/01/31 02:37:14;;;;;;;12.15;4.20;;;;;;;;;;4955222;28;20091;-77
2022/01/31 02:39:42;;;;;;;10.63;4.50;;;;;;;;;;4955400;28;20051;-78
2022/01/31 02:42:09;;;;;;;9.27;4.10;;;;;;;;;;4955355;28;20051;-78
2022/01/31 02:44:40;;;;;;;11.38;3.88;;;;;;;;;;4954544;28;20137;-77
2022/01/31 02:47:11;;;;;;;14.35;4.05;;;;;;;;;;4954588;28;20085;-78
2022/01/31 02:49:46;;;;;;;10.57;4.15;;;;;;;;;;4955464;28;20055;-77
2022/01/31 02:52:14;;;;;;;8.90;4.28;;;;;;;;;;4978401;28;20050;-78
2022/01/31 02:54:43;;;;;;;7.85;3.38;;;;;;;;;;4962570;28;20062;-76
2022/01/31 02:57:10;;;;;;;11.48;4.45;;;;;;;;;;4954048;28;20087;-78
2022/01/31 02:59:38;;;;;;;12.40;4.88;;;;;;;;;;4954437;28;20466;-75
2022/01/31 03:02:05;;;;;;;10.40;4.28;;;;;;;;;;4954193;28;20111;-77
2022/01/31 03:04:32;;;;;;;9.38;4.30;;;;;;;;;;4954366;28;20043;-76
2022/01/31 03:06:59;;;;;;;11.52;4.50;;;;;;;;;;4954681;28;20047;-78
2022/01/31 03:09:26;;;;;;;10.90;4.97;;;;;;;;;;4954873;28;20110;-78
2022/01/31 03:11:54;;;;;;;9.68;4.07;;;;;;;;;;4954818;28;20047;-77
2022/01/31 03:14:21;;;;;;;10.80;4.82;;;;;;;;;;4955437;28;20102;-77
2022/01/31 03:16:48;;;;;;;7.93;3.92;;;;;;;;;;4955300;28;20043;-78
2022/01/31 03:19:16;;;;;;;13.48;4.43;;;;;;;;;;4955735;28;20415;-77
2022/01/31 03:21:43;;;;;;;11.38;4.63;;;;;;;;;;4955902;28;20062;-77
2022/01/31 03:24:12;;;;;;;10.45;4.20;;;;;;;;;;4954670;28;20110;-77
2022/01/31 03:26:39;;;;;;;10.38;4.25;;;;;;;;;;4955135;28;20557;-76
2022/01/31 03:29:07;;;;;;;10.85;4.47;;;;;;;;;;4954645;28;20047;-78
2022/01/31 03:31:34;;;;;;;12.18;4.32;;;;;;;;;;4954773;28;20054;-78
2022/01/31 03:34:01;;;;;;;11.13;4.85;;;;;;;;;;4954776;28;20637;-77
2022/01/31 03:36:28;;;;;;;10.52;4.45;;;;;;;;;;4954173;28;20498;-77
2022/01/31 03:38:55;;;;;;;16.58;4.80;;;;;;;;;;4955720;28;20462;-77
2022/01/31 03:41:23;;;;;;;13.15;5.43;;;;;;;;;;4959399;28;20399;-77
2022/01/31 03:43:50;;;;;;;10.65;4.50;;;;;;;;;;4958507;28;20199;-77
2022/01/31 03:46:18;;;;;;;11.55;4.88;;;;;;;;;;4958120;28;20055;-77
2022/01/31 03:48:46;;;;;;;12.77;6.05;;;;;;;;;;4959743;28;20047;-76
2022/01/31 03:51:13;;;;;;;14.20;5.57;;;;;;;;;;4957511;28;20055;-77
2022/01/31 03:53:41;;;;;;;14.40;5.40;;;;;;;;;;4958380;28;20401;-77
2022/01/31 03:56:08;;;;;;;17.27;5.57;;;;;;;;;;4958046;28;20051;-78
2022/01/31 03:58:35;;;;;;;15.73;6.53;;;;;;;;;;4957727;28;20494;-77
2022/01/31 04:01:01;;;;;;;12.80;5.03;;;;;;;;;;4958068;28;20151;-77
2022/01/31 04:03:30;;;;;;;13.93;5.05;;;;;;;;;;4958455;28;20157;-77
2022/01/31 04:05:57;;;;;;;10.13;5.00;;;;;;;;;;4957838;28;20066;-77
2022/01/31 04:08:23;;;;;;;16.77;5.78;;;;;;;;;;4957785;28;20055;-77
2022/01/31 04:10:50;;;;;;;14.32;5.65;;;;;;;;;;4958349;28;20101;-77
2022/01/31 04:13:18;;;;;;;13.07;6.20;;;;;;;;;;4958349;28;20051;-77
2022/01/31 04:15:45;;;;;;;9.20;4.88;;;;;;;;;;4958592;28;20058;-76
2022/01/31 04:18:12;;;;;;;14.25;5.20;;;;;;;;;;4958541;28;20062;-76
2022/01/31 04:20:40;;;;;;;13.10;4.40;;;;;;;;;;4956980;28;20058;-76
2022/01/31 04:23:10;;;;;;;13.30;4.78;;;;;;;;;;4956644;28;20054;-76
2022/01/31 04:25:46;;;;;;;13.05;5.25;;;;;;;;;;4956697;28;20510;-77
2022/01/31 04:28:20;;;;;;;14.57;5.10;;;;;;;;;;4956331;28;20113;-76
2022/01/31 04:30:56;;;;;;;15.50;5.53;;;;;;;;;;4956809;28;20055;-77
2022/01/31 04:33:24;;;;;;;15.50;5.50;;;;;;;;;;4956897;28;20247;-77
2022/01/31 04:35:53;;;;;;;17.23;5.03;;;;;;;;;;4979206;28;20031;-80
2022/01/31 04:38:20;;;;;;;17.10;5.25;;;;;;;;;;4980740;28;20059;-78
2022/01/31 04:40:47;;;;;;;11.45;4.72;;;;;;;;;;4979816;28;20106;-76
2022/01/31 04:43:14;;;;;;;12.15;4.55;;;;;;;;;;4964448;28;20053;-77
2022/01/31 04:45:46;;;;;;;12.93;4.63;;;;;;;;;;4957926;28;20047;-78
2022/01/31 04:48:14;;;;;;;12.15;4.25;;;;;;;;;;4956304;28;20066;-78
2022/01/31 04:50:41;;;;;;;15.52;4.63;;;;;;;;;;4955904;28;20086;-78
2022/01/31 04:53:09;;;;;;;14.95;4.57;;;;;;;;;;4956061;28;20051;-77
2022/01/31 04:55:39;;;;;;;11.63;4.88;;;;;;;;;;4956389;28;20055;-78
2022/01/31 04:58:06;;;;;;;13.80;5.32;;;;;;;;;;4956347;28;20047;-78
2022/01/31 05:00:34;;;;;;;14.35;5.78;;;;;;;;;;4956352;28;20043;-77
2022/01/31 05:03:02;;;;;;;13.30;4.95;;;;;;;;;;4956389;28;20106;-78
2022/01/31 05:05:28;;;;;;;10.40;4.47;;;;;;;;;;4956037;28;20420;-78
2022/01/31 05:07:55;;;;;;;8.73;3.92;;;;;;;;;;4955817;28;20132;-78
2022/01/31 05:10:24;;;;;;;16.42;4.30;;;;;;;;;;4957968;28;20179;-78
2022/01/31 05:12:50;;;;;;;10.75;4.22;;;;;;;;;;4956438;28;20043;-78
2022/01/31 05:15:17;;;;;;;9.75;4.00;;;;;;;;;;4956384;28;20059;-78
2022/01/31 05:17:44;;;;;;;9.63;4.15;;;;;;;;;;4955679;28;20106;-77
2022/01/31 05:20:12;;;;;;;14.80;4.07;;;;;;;;;;4955662;28;20078;-77
2022/01/31 05:22:39;;;;;;;9.75;4.50;;;;;;;;;;4955497;28;20351;-77
2022/01/31 05:25:06;;;;;;;12.32;4.00;;;;;;;;;;4964650;28;20051;-77
2022/01/31 05:27:34;;;;;;;11.95;3.97;;;;;;;;;;4975462;28;20502;-78
2022/01/31 05:30:02;;;;;;;11.73;4.43;;;;;;;;;;4976886;28;20054;-78
2022/01/31 05:32:28;;;;;;;9.65;4.90;;;;;;;;;;4983927;28;20054;-77
2022/01/31 05:34:55;;;;;;;12.52;4.82;;;;;;;;;;4981943;28;20058;-77
2022/01/31 05:37:22;;;;;;;12.30;5.32;;;;;;;;;;4974940;28;20047;-77
2022/01/31 05:39:49;;;;;;;11.52;4.93;;;;;;;;;;4975236;28;20062;-77
2022/01/31 05:42:16;;;;;;;11.45;5.10;;;;;;;;;;4974759;28;20054;-78
2022/01/31 05:44:47;;;;;;;11.00;5.60;;;;;;;;;;4975247;28;20050;-77
2022/01/31 05:47:13;;;;;;;;;;;;;;;;;;4975050;28;20055;-77
2022/01/31 05:49:40;;;;;;;9.98;6.38;;;;;;;;;;4974417;28;19922;-77
2022/01/31 05:52:08;;;;;;;12.63;6.00;;;;;;;;;;4974354;28;20054;-77
2022/01/31 05:54:36;;;;;;;13.65;6.53;;;;;;;;;;4974686;28;20051;-76
2022/01/31 05:57:05;;;;;;;15.25;6.25;;;;;;;;;;4974198;28;20113;-76
2022/01/31 05:59:32;;;;;;;11.13;6.25;;;;;;;;;;4974743;28;20050;-77
2022/01/31 06:02:01;;;;;;;13.45;6.57;;;;;;;;;;4974074;28;20050;-76
2022/01/31 06:04:28;;;;;;;14.95;7.00;;;;;;;;;;4974331;28;20062;-77
2022/01/31 06:06:55;;;;;;;15.70;7.03;;;;;;;;;;4974018;28;20506;-76
2022/01/31 06:09:21;;;;;;;16.77;7.22;;;;;;;;;;4974813;28;20047;-76
2022/01/31 06:11:49;;;;;;;17.15;7.60;;;;;;;;;;4973965;28;20047;-77
2022/01/31 06:14:18;;;;;;;14.02;7.03;;;;;;;;;;4974597;28;20146;-77
2022/01/31 06:16:45;;;;;;;14.38;7.00;;;;;;;;;;4974175;28;20058;-77
2022/01/31 06:19:13;;;;;;;16.23;6.85;;;;;;;;;;4974164;28;20046;-77
2022/01/31 06:21:40;;;;;;;14.68;7.25;;;;;;;;;;4974597;28;20051;-77
2022/01/31 06:24:09;;;;;;;14.43;6.10;;;;;;;;;;4974249;28;20548;-76
2022/01/31 06:26:37;;;;;;;12.60;5.88;;;;;;;;;;4974465;28;20144;-77
2022/01/31 06:29:04;;;;;;;9.57;5.85;;;;;;;;;;4974770;28;20055;-77
2022/01/31 06:31:31;;;;;;;12.95;6.28;;;;;;;;;;4974777;28;20461;-77
2022/01/31 06:33:58;;;;;;;9.82;4.93;;;;;;;;;;4974538;28;20134;-77
2022/01/31 06:36:27;;;;;;;9.95;5.65;;;;;;;;;;4974976;28;20047;-77
2022/01/31 06:38:54;;;;;;;10.85;5.07;;;;;;;;;;4974287;28;20066;-78
2022/01/31 06:41:22;;;;;;;12.68;4.80;;;;;;;;;;4974408;28;20091;-77
2022/01/31 06:43:49;;;;;;;8.82;4.30;;;;;;;;;;4973645;28;20046;-77
2022/01/31 06:46:16;;;;;;;9.25;4.80;;;;;;;;;;4974090;28;20062;-78
2022/01/31 06:48:43;;;;;;;10.85;4.65;;;;;;;;;;4973908;28;20101;-78
2022/01/31 06:51:10;;;;;;;8.43;3.85;;;;;;;;;;4974055;28;20102;-78
2022/01/31 06:53:38;;;;;;;7.93;3.28;;;;;;;;;;4973726;28;20046;-78
2022/01/31 06:56:06;;;;;;;11.13;3.72;;;;;;;;;;4973923;28;20046;-78
2022/01/31 06:58:32;;;;;;;8.05;3.45;;;;;;;;;;4973639;28;20082;-78
2022/01/31 07:00:59;;;;;;;8.30;3.42;;;;;;;;;;4973712;28;20097;-78
2022/01/31 07:03:26;;;;;;;6.70;3.55;;;;;;;;;;4973924;28;20426;-78
2022/01/31 07:05:53;;;;;;;6.32;3.30;;;;;;;;;;4981855;28;20053;-77
2022/01/31 07:08:20;;;;;;;7.85;3.47;;;;;;;;;;4984503;28;20050;-78
2022/01/31 07:10:51;;;;;;;10.38;3.65;;;;;;;;;;4985397;28;20521;-77
2022/01/31 07:13:35;;;;;;;10.68;3.95;;;;;;;;;;4985466;28;20113;-77
2022/01/31 07:16:02;;;;;;;13.13;3.97;;;;;;;;;;4988754;28;20490;-77
2022/01/31 07:18:30;;;;;;;7.15;3.10;;;;;;;;;;4988487;28;20078;-77
2022/01/31 07:20:57;;;;;;;7.95;3.17;;;;;;;;;;4988105;28;20057;-77
2022/01/31 07:23:27;;;;;;;8.13;3.13;;;;;;;;;;4987298;28;20062;-77
2022/01/31 07:25:56;;;;;;;9.87;3.57;;;;;;;;;;4986921;28;20054;-77
2022/01/31 07:28:24;;;;;;;8.38;3.03;;;;;;;;;;4981536;28;20399;-77
2022/01/31 07:30:53;;;;;;;10.20;3.65;;;;;;;;;;4982392;28;20058;-77
2022/01/31 07:33:20;;;;;;;9.32;3.17;;;;;;;;;;4981018;28;20058;-76
2022/01/31 07:35:49;;;;;;;8.63;3.10;;;;;;;;;;4981341;28;20434;-77
2022/01/31 07:38:16;;;;;;;11.10;3.42;;;;;;;;;;4981351;28;20117;-76
2022/01/31 07:40:43;;;;;;;6.68;3.35;;;;;;;;;;4980732;28;20054;-76
2022/01/31 07:43:12;;;;;;;9.30;2.80;;;;;;;;;;4979990;28;20053;-76
2022/01/31 07:45:39;;;;;;;12.27;3.30;;;;;;;;;;4979293;28;20081;-76
2022/01/31 07:48:06;;;;;;;9.60;3.45;;;;;;;;;;4979879;28;20503;-76
2022/01/31 07:50:36;;;;;;;8.68;3.97;;;;;;;;;;4979022;28;20070;-76
2022/01/31 07:53:04;;;;;;;11.00;3.15;;;;;;;;;;4978665;28;20392;-78
2022/01/31 07:55:32;;;;;;;7.05;3.10;;;;;;;;;;4978000;28;20051;-77
2022/01/31 07:57:58;;;;;;;9.52;3.25;;;;;;;;;;4984851;28;20085;-76
2022/01/31 08:00:29;;;;;;;7.15;2.92;;;;;;;;;;4999044;28;20213;-77
2022/01/31 08:02:56;;;;;;;7.10;2.72;;;;;;;;;;4999189;28;20058;-77
2022/01/31 08:05:23;;;;;;;11.38;3.78;;;;;;;;;;4984703;28;20058;-77
2022/01/31 08:07:50;;;;;;;10.13;3.17;;;;;;;;;;4975625;28;20410;-77
2022/01/31 08:10:17;;;;;;;7.50;3.17;;;;;;;;;;4976105;28;20055;-78
2022/01/31 08:12:44;;;;;;;8.23;2.97;;;;;;;;;;4975401;28;20078;-77
2022/01/31 08:15:20;;;;;;;8.68;3.20;;;;;;;;;;4975412;28;20054;-77
2022/01/31 08:17:48;;;;;;;6.35;2.78;;;;;;;;;;4975006;28;20449;-78
2022/01/31 08:20:15;;;;;;;7.30;3.45;;;;;;;;;;4975454;28;20047;-77
2022/01/31 08:22:42;;;;;;;8.50;3.22;;;;;;;;;;4976230;28;20074;-76
2022/01/31 08:25:14;;;;;;;5.93;2.90;;;;;;;;;;4976762;28;20061;-77
2022/01/31 08:27:42;;;;;;;6.00;2.80;;;;;;;;;;4978172;28;20505;-77
2022/01/31 08:30:15;;;;;;;9.48;3.13;;;;;;;;;;4976645;28;20046;-76
2022/01/31 08:32:46;;;;;;;7.03;3.30;;;;;;;;;;4977466;28;20050;-76
2022/01/31 08:38:00;;;;;;;6.13;3.10;;;;;;;;;;4978351;28;20106;-77
2022/01/31 08:40:27;;;;;;;7.93;2.72;;;;;;;;;;4981143;28;20054;-77
2022/01/31 08:42:56;;;;;;;7.20;2.90;;;;;;;;;;4980096;28;20060;-77
2022/01/31 08:45:23;;;;;;;7.28;3.28;;;;;;;;;;4977415;28;20055;-77
2022/01/31 08:47:49;;;;;;;9.00;3.33;;;;;;;;;;4974782;28;20458;-76
2022/01/31 08:50:18;;;;;;;7.45;3.33;;;;;;;;;;4975887;28;20051;-76
2022/01/31 08:52:45;;;;;;;8.40;3.83;;;;;;;;;;4975484;28;20050;-77
2022/01/31 08:55:12;;;;;;;9.68;4.20;;;;;;;;;;4975778;28;20514;-76
2022/01/31 08:57:39;;;;;;;7.78;3.17;;;;;;;;;;4975771;28;20429;-77
2022/01/31 09:00:08;;;;;;;8.02;3.83;;;;;;;;;;4976094;28;20078;-76
2022/01/31 09:02:40;;;;;;;7.40;3.40;;;;;;;;;;4977503;28;20047;-76
2022/01/31 09:05:08;;;;;;;7.07;3.45;;;;;;;;;;4976380;28;20051;-77
2022/01/31 09:07:36;;;;;;;7.35;3.38;;;;;;;;;;4975771;28;20051;-77
2022/01/31 09:10:06;;;;;;;7.80;4.10;;;;;;;;;;4976363;28;20050;-77
2022/01/31 09:12:35;;;;;;;9.57;3.60;;;;;;;;;;4975250;28;20086;-78
2022/01/31 09:15:02;;;;;;;7.30;3.58;;;;;;;;;;4976689;28;20043;-77
2022/01/31 09:17:29;;;;;;;11.38;4.28;;;;;;;;;;4974966;28;20047;-77
2022/01/31 09:19:55;;;;;;;8.23;3.33;;;;;;;;;;4968428;28;20047;-78
2022/01/31 09:22:23;;;;;;;7.05;3.92;;;;;;;;;;4955701;28;20529;-77
2022/01/31 09:24:53;;;;;;;8.20;3.38;;;;;;;;;;4973556;28;20141;-76
2022/01/31 09:27:20;;;;;;;6.75;3.47;;;;;;;;;;4974613;28;20149;-77
2022/01/31 09:29:47;;;;;;;8.90;3.55;;;;;;;;;;4974730;28;20498;-77
2022/01/31 09:32:15;;;;;;;7.43;3.30;;;;;;;;;;4975229;28;20086;-76
2022/01/31 09:34:43;;;;;;;8.10;3.55;;;;;;;;;;4974369;28;20093;-77
2022/01/31 09:37:10;;;;;;;7.20;3.13;;;;;;;;;;4973823;28;20407;-77
2022/01/31 09:39:37;;;;;;;8.93;3.40;;;;;;;;;;4977043;28;20059;-77
2022/01/31 09:42:10;;;;;;;6.18;2.95;;;;;;;;;;4975385;28;20054;-76
2022/01/31 09:44:45;;;;;;;7.55;3.17;;;;;;;;;;4974909;28;20055;-76
2022/01/31 09:47:21;;;;;;;5.80;3.28;;;;;;;;;;4975651;28;20084;-77
2022/01/31 09:49:48;;;;;;;5.97;2.90;;;;;;;;;;4974780;28;20505;-76
2022/01/31 09:52:16;;;;;;;6.82;2.67;;;;;;;;;;4975271;28;20058;-78
2022/01/31 09:54:47;;;;;;;8.07;3.45;;;;;;;;;;4977073;28;20055;-77
2022/01/31 09:57:16;;;;;;;5.93;2.83;;;;;;;;;;4991862;28;20078;-78
2022/01/31 09:59:43;;;;;;;6.95;3.40;;;;;;;;;;4996002;28;20053;-77
2022/01/31 10:02:12;;;;;;;6.07;2.75;;;;;;;;;;4993542;28;20054;-77
2022/01/31 10:04:44;;;;;;;6.97;3.13;;;;;;;;;;4992603;28;20026;-77
2022/01/31 10:07:12;;;;;;;7.78;2.80;;;;;;;;;;4995689;28;20206;-77
2022/01/31 10:09:43;;;;;;;6.53;3.10;;;;;;;;;;4994649;28;20039;-76
2022/01/31 10:12:20;;;;;;;6.00;3.10;;;;;;;;;;4995272;28;20042;-77
2022/01/31 10:17:34;;;;;;;5.53;2.40;;;;;;;;;;4995901;28;20134;-79
2022/01/31 10:20:04;;;;;;;5.50;2.28;;;;;;;;;;4996977;28;20078;-77
2022/01/31 10:22:33;;;;;;;6.13;2.75;;;;;;;;;;4992145;28;20080;-77
2022/01/31 10:25:02;;;;;;;6.45;2.72;;;;;;;;;;4996418;28;20038;-76
2022/01/31 10:27:33;;;;;;;5.70;2.80;;;;;;;;;;4996648;28;20034;-77
2022/01/31 10:30:08;;;;;;;;;;;;;;;;;;4997238;28;20098;-77
2022/01/31 10:32:37;;;;;;;6.22;2.50;;;;;;;;;;4996476;28;19922;-76
2022/01/31 10:35:06;;;;;;;6.18;2.50;;;;;;;;;;4996076;28;20042;-77
2022/01/31 10:37:35;;;;;;;5.50;2.80;;;;;;;;;;4996044;28;20031;-76
2022/01/31 10:45:53;;;;;;;6.57;2.60;;;;;;;;;;4996398;28;20042;-78
2022/01/31 10:54:09;;;;;;;5.40;2.92;;;;;;;;;;4983646;28;20038;-79
2022/01/31 10:56:44;;;;;;;5.60;2.72;;;;;;;;;;4994889;28;20054;-78
2022/01/31 10:59:13;;;;;;;4.20;1.95;;;;;;;;;;4996209;28;20043;-76
2022/01/31 11:01:43;;;;;;;3.63;1.80;;;;;;;;;;4996110;28;20061;-77
2022/01/31 11:04:14;;;;;;;4.50;2.00;;;;;;;;;;4995786;28;20038;-77
2022/01/31 11:06:45;;;;;;;3.38;1.70;;;;;;;;;;4994698;28;20030;-75
2022/01/31 11:09:14;;;;;;;3.20;1.67;;;;;;;;;;4995606;28;20074;-76
2022/01/31 11:11:46;;;;;;;2.72;1.30;;;;;;;;;;4993335;28;20050;-75
2022/01/31 11:14:15;;;;;;;3.53;1.80;;;;;;;;;;4991371;28;20050;-78
2022/01/31 11:16:48;;;;;;;2.67;1.50;;;;;;;;;;4979255;28;20055;-76
2022/01/31 11:19:18;;;;;;;3.20;1.65;;;;;;;;;;4983634;28;20054;-80
2022/01/31 11:21:47;;;;;;;3.17;1.50;;;;;;;;;;4997064;28;20033;-79
2022/01/31 11:24:20;;;;;;;3.10;1.90;;;;;;;;;;4996584;28;20031;-77
2022/01/31 11:26:50;;;;;;;3.30;1.83;;;;;;;;;;4996830;28;20053;-79
2022/01/31 11:29:18;;;;;;;4.80;2.17;;;;;;;;;;4990721;28;20043;-77
2022/01/31 11:31:47;;;;;;;3.75;1.67;;;;;;;;;;4980722;28;20070;-79
2022/01/31 11:34:14;;;;;;;2.58;1.27;;;;;;;;;;4981338;28;20043;-78
2022/01/31 11:36:43;;;;;;;3.97;1.65;;;;;;;;;;4978175;28;20050;-78
2022/01/31 11:39:12;;;;;;;3.50;1.67;;;;;;;;;;4979203;28;20030;-78
2022/01/31 11:41:43;;;;;;;3.47;1.40;;;;;;;;;;4976364;28;20450;-78
2022/01/31 11:44:18;;;;;;;3.85;1.63;;;;;;;;;;4978405;28;20086;-77
2022/01/31 11:46:48;;;;;;;3.92;1.98;;;;;;;;;;4987056;28;20043;-78
2022/01/31 11:49:15;;;;;;;2.67;1.23;;;;;;;;;;4985083;28;20130;-77
2022/01/31 11:52:04;;;;;;;3.63;1.58;;;;;;;;;;4978926;28;20390;-77
2022/01/31 11:54:31;;;;;;;2.70;1.60;;;;;;;;;;4979018;28;20082;-79
2022/01/31 11:57:19;;;;;;;3.65;1.52;;;;;;;;;;4976799;28;20506;-76
2022/01/31 11:59:51;;;;;;;2.47;1.20;;;;;;;;;;4975099;28;20051;-78
2022/01/31 12:02:21;;;;;;;3.78;1.40;;;;;;;;;;4979954;28;20055;-78
2022/01/31 12:04:50;;;;;;;4.00;1.38;;;;;;;;;;4978386;28;20129;-77
2022/01/31 12:07:36;;;;;;;3.95;1.50;;;;;;;;;;4977133;28;20054;-78
2022/01/31 12:10:04;;;;;;;3.70;1.33;;;;;;;;;;4977229;28;20066;-77
2022/01/31 12:12:39;;;;;;;2.17;1.00;;;;;;;;;;4978592;28;20170;-81
2022/01/31 12:15:42;;;;;;;2.00;1.10;;;;;;;;;;4979468;28;20155;-78
2022/01/31 12:18:40;;;;;;;2.83;1.30;;;;;;;;;;4978664;28;20438;-77
2022/01/31 12:23:55;;;;;;;2.67;1.00;;;;;;;;;;4979798;28;20437;-79
2022/01/31 12:26:36;;;;;;;5.30;1.35;;;;;;;;;;4978947;28;20059;-78
2022/01/31 12:29:08;;;;;;;2.72;1.38;;;;;;;;;;4979661;28;20418;-78
2022/01/31 12:31:38;;;;;;;2.70;1.38;;;;;;;;;;4979769;28;20047;-79
2022/01/31 12:34:32;;;;;;;5.30;1.45;;;;;;;;;;4977238;28;20055;-79
2022/01/31 12:37:00;;;;;;;2.85;1.10;;;;;;;;;;4976970;28;20070;-79
2022/01/31 12:40:09;;;;;;;2.22;1.00;;;;;;;;;;4977046;28;20415;-78
2022/01/31 12:46:09;;;;;;;3.17;1.40;;;;;;;;;;4897474;29;20637;-77
2022/01/31 12:48:37;;;;;;;3.70;1.20;;;;;;;;;;4974993;28;20086;-77
2022/01/31 12:51:18;;;;;;;3.33;1.10;;;;;;;;;;4975868;28;20055;-77
2022/01/31 12:53:49;;;;;;;2.60;1.50;;;;;;;;;;4974835;28;20054;-75
2022/01/31 12:56:30;;;;;;;5.32;1.58;;;;;;;;;;4974783;28;20272;-78
2022/01/31 12:59:09;;;;;;;7.93;1.73;;;;;;;;;;4976620;28;20046;-79
2022/01/31 13:01:38;;;;;;;3.28;1.30;;;;;;;;;;4975981;28;20453;-78
2022/01/31 13:04:07;;;;;;;4.72;1.60;;;;;;;;;;4976192;28;20086;-76
2022/01/31 13:06:39;;;;;;;3.00;1.25;;;;;;;;;;4976924;28;20058;-79
2022/01/31 13:09:21;;;;;;;3.03;1.30;;;;;;;;;;4977194;28;20059;-77
2022/01/31 13:11:50;;;;;;;3.88;1.55;;;;;;;;;;4974766;28;20051;-77
2022/01/31 13:14:19;;;;;;;3.55;1.45;;;;;;;;;;4975397;28;20050;-76
2022/01/31 13:16:58;;;;;;;3.80;1.40;;;;;;;;;;4975102;28;20138;-79
2022/01/31 13:19:27;;;;;;;5.00;1.45;;;;;;;;;;4976777;28;20137;-77
2022/01/31 13:21:57;;;;;;;2.92;1.35;;;;;;;;;;4974071;28;20051;-78
2022/01/31 13:24:35;;;;;;;3.00;1.30;;;;;;;;;;4975101;28;20090;-76
2022/01/31 13:27:04;;;;;;;2.70;1.33;;;;;;;;;;4975005;28;20293;-78
2022/01/31 13:29:48;;;;;;;2.85;1.30;;;;;;;;;;4976589;28;20082;-77
2022/01/31 13:32:24;;;;;;;2.80;1.20;;;;;;;;;;4976276;28;20058;-77
2022/01/31 13:34:53;;;;;;;4.00;1.40;;;;;;;;;;4974377;28;20101;-77
2022/01/31 13:37:53;;;;;;;2.10;1.20;;;;;;;;;;4974652;28;20047;-77
2022/01/31 13:40:31;;;;;;;2.53;1.00;;;;;;;;;;4974496;28;20526;-78
2022/01/31 13:43:10;;;;;;;3.08;1.30;;;;;;;;;;4975018;28;20050;-76
2022/01/31 13:45:44;;;;;;;3.53;1.30;;;;;;;;;;4973985;28;20061;-77
2022/01/31 13:48:24;;;;;;;3.25;1.45;;;;;;;;;;4975352;28;20061;-77
2022/01/31 13:50:58;;;;;;;3.05;1.17;;;;;;;;;;4974336;28;20102;-79
2022/01/31 13:53:32;;;;;;;3.08;1.30;;;;;;;;;;4974915;28;20458;-78
2022/01/31 13:56:01;;;;;;;4.50;1.30;;;;;;;;;;4975339;28;20050;-79
2022/01/31 13:58:30;;;;;;;7.45;1.23;;;;;;;;;;4974297;28;20502;-77
2022/01/31 14:00:58;;;;;;;2.97;1.30;;;;;;;;;;4973934;28;20050;-76
2022/01/31 14:03:26;;;;;;;4.28;1.20;;;;;;;;;;4973842;28;20129;-76
2022/01/31 14:05:58;;;;;;;4.82;1.40;;;;;;;;;;4975507;28;20073;-77
2022/01/31 14:08:28;;;;;;;3.97;1.40;;;;;;;;;;4974451;28;20494;-76
2022/01/31 14:11:10;;;;;;;4.07;1.40;;;;;;;;;;4975559;28;20046;-75
2022/01/31 14:13:40;;;;;;;4.15;1.10;;;;;;;;;;4975021;28;20058;-76
2022/01/31 14:16:10;;;;;;;3.80;1.35;;;;;;;;;;4974543;28;20553;-77
2022/01/31 14:18:39;;;;;;;2.53;1.27;;;;;;;;;;4973922;28;20050;-78
2022/01/31 14:21:07;;;;;;;2.85;1.35;;;;;;;;;;4974662;28;20062;-79
2022/01/31 14:23:36;;;;;;;2.97;1.33;;;;;;;;;;4974680;28;20050;-79
2022/01/31 14:26:05;;;;;;;5.32;1.30;;;;;;;;;;4974576;28;20086;-78
2022/01/31 14:28:38;;;;;;;3.08;1.10;;;;;;;;;;4970084;28;20049;-78
2022/01/31 14:31:06;;;;;;;3.05;1.52;;;;;;;;;;4974377;28;20050;-77
2022/01/31 14:33:34;;;;;;;3.53;1.20;;;;;;;;;;4974498;28;20062;-78
2022/01/31 14:36:03;;;;;;;4.07;1.40;;;;;;;;;;4974201;28;20418;-77
2022/01/31 14:38:35;;;;;;;3.08;1.70;;;;;;;;;;4974388;28;20062;-77
2022/01/31 14:41:11;;;;;;;3.05;1.27;;;;;;;;;;4975593;28;20675;-77
2022/01/31 14:49:11;;;;;;;2.80;1.30;;;;;;;;;;4985037;28;20061;-78
2022/01/31 14:51:42;;;;;;;3.97;1.10;;;;;;;;;;4997608;28;20066;-78
2022/01/31 14:54:10;;;;;;;;;;;;;;;;;;4998407;28;20031;-79
2022/01/31 14:56:39;;;;;;;3.88;1.30;;;;;;;;;;4996327;28;19922;-76
2022/01/31 14:59:07;;;;;;;3.00;1.42;;;;;;;;;;4983412;28;20054;-77
2022/01/31 15:01:35;;;;;;;3.85;1.23;;;;;;;;;;4979676;28;20054;-80
2022/01/31 15:04:02;;;;;;;2.97;1.10;;;;;;;;;;4979349;28;20054;-80
2022/01/31 15:06:29;;;;;;;3.67;1.50;;;;;;;;;;4975712;28;20057;-78
2022/01/31 15:08:55;;;;;;;5.15;1.90;;;;;;;;;;4974446;28;20421;-76
2022/01/31 15:11:22;;;;;;;4.13;1.25;;;;;;;;;;4975985;28;20054;-78
2022/01/31 15:13:52;;;;;;;5.40;1.50;;;;;;;;;;4975659;28;20046;-77
2022/01/31 15:16:25;;;;;;;3.75;1.20;;;;;;;;;;4974638;28;20133;-77
2022/01/31 15:18:52;;;;;;;5.38;1.42;;;;;;;;;;4973707;28;20082;-77
2022/01/31 15:21:21;;;;;;;2.97;1.30;;;;;;;;;;4973710;28;20063;-78
2022/01/31 15:23:52;;;;;;;3.72;1.13;;;;;;;;;;4973899;28;20085;-78
2022/01/31 15:26:19;;;;;;;3.05;1.15;;;;;;;;;;4973453;28;20494;-77
2022/01/31 15:28:47;;;;;;;2.00;1.20;;;;;;;;;;4976683;28;20078;-77
2022/01/31 15:31:18;;;;;;;2.85;1.08;;;;;;;;;;4963027;28;20051;-77
2022/01/31 15:33:45;;;;;;;2.95;0.95;;;;;;;;;;4963053;28;20054;-78
2022/01/31 15:36:13;;;;;;;1.80;0.93;;;;;;;;;;4965913;28;20582;-78
2022/01/31 15:38:40;;;;;;;4.28;1.17;;;;;;;;;;4959523;28;20055;-77
2022/01/31 15:41:09;;;;;;;2.05;0.95;;;;;;;;;;4957644;28;20054;-80
2022/01/31 15:43:37;;;;;;;2.45;1.00;;;;;;;;;;4960790;28;20051;-78
2022/01/31 15:46:06;;;;;;;1.65;1.02;;;;;;;;;;4960419;28;20480;-78
2022/01/31 15:48:34;;;;;;;3.60;1.10;;;;;;;;;;4958511;28;20043;-77